sensor_id;sensor_type;location;lat;lon;timestamp;temperature;humidity
22418;DHT22;11376;50.932;4.442;2023-02-27T00:01:06;1.50;99.90
22418;DHT22;11376;50.932;4.442;2023-02-27T00:03:32;1.50;99.90
22418;DHT22;11376;50.932;4.442;2023-02-27T00:05:58;1.50;99.90
22418;DHT22;11376;50.932;4.442;2023-02-27T00:08:23;1.50;99.90
22418;DHT22;11376;50.932;4.442;2023-02-27T00:10:49;1.40;99.90
22418;DHT22;11376;50.932;4.442;2023-02-27T00:13:15;1.50;99.90
22418;DHT22;11376;50.932;4.442;2023-02-27T00:15:43;1.30;99.90
22418;DHT22;11376;50.932;4.442;2023-02-27T00:18:09;1.30;99.90
22418;DHT22;11376;50.932;4.442;2023-02-27T00:20:34;1.30;99.90
22418;DHT22;11376;50.932;4.442;2023-02-27T00:23:04;1.40;99.90
22418;DHT22;11376;50.932;4.442;2023-02-27T00:25:30;1.40;99.90
22418;DHT22;11376;50.932;4.442;2023-02-27T00:27:56;1.30;99.90
22418;DHT22;11376;50.932;4.442;2023-02-27T00:30:22;1.30;99.90
22418;DHT22;11376;50.932;4.442;2023-02-27T00:32:47;1.30;99.90
22418;DHT22;11376;50.932;4.442;2023-02-27T00:35:13;1.20;99.90
22418;DHT22;11376;50.932;4.442;2023-02-27T00:37:39;1.10;99.90
22418;DHT22;11376;50.932;4.442;2023-02-27T00:40:05;1.20;99.90
22418;DHT22;11376;50.932;4.442;2023-02-27T00:42:31;1.10;99.90
22418;DHT22;11376;50.932;4.442;2023-02-27T00:44:57;1.10;99.90
22418;DHT22;11376;50.932;4.442;2023-02-27T00:47:23;1.20;99.90
22418;DHT22;11376;50.932;4.442;2023-02-27T00:49:48;1.10;99.90
22418;DHT22;11376;50.932;4.442;2023-02-27T00:52:14;1.10;99.90
22418;DHT22;11376;50.932;4.442;2023-02-27T00:54:40;1.00;99.90
22418;DHT22;11376;50.932;4.442;2023-02-27T00:57:05;0.90;99.90
22418;DHT22;11376;50.932;4.442;2023-02-27T00:59:31;0.90;99.90
22418;DHT22;11376;50.932;4.442;2023-02-27T01:01:56;1.00;99.90
22418;DHT22;11376;50.932;4.442;2023-02-27T01:04:22;1.10;99.90
22418;DHT22;11376;50.932;4.442;2023-02-27T01:06:48;1.00;99.90
22418;DHT22;11376;50.932;4.442;2023-02-27T01:09:13;0.90;99.90
22418;DHT22;11376;50.932;4.442;2023-02-27T01:11:39;0.80;99.90
22418;DHT22;11376;50.932;4.442;2023-02-27T01:14:05;0.90;99.90
22418;DHT22;11376;50.932;4.442;2023-02-27T01:16:31;0.80;99.90
22418;DHT22;11376;50.932;4.442;2023-02-27T01:18:56;0.90;99.90
22418;DHT22;11376;50.932;4.442;2023-02-27T01:21:22;0.90;99.90
22418;DHT22;11376;50.932;4.442;2023-02-27T01:23:48;0.90;99.90
22418;DHT22;11376;50.932;4.442;2023-02-27T01:26:14;0.80;99.90
22418;DHT22;11376;50.932;4.442;2023-02-27T01:28:39;0.80;99.90
22418;DHT22;11376;50.932;4.442;2023-02-27T01:31:05;0.70;99.90
22418;DHT22;11376;50.932;4.442;2023-02-27T01:33:31;0.70;99.90
22418;DHT22;11376;50.932;4.442;2023-02-27T01:35:56;0.70;99.90
22418;DHT22;11376;50.932;4.442;2023-02-27T01:38:22;0.60;99.90
22418;DHT22;11376;50.932;4.442;2023-02-27T01:40:48;0.60;99.90
22418;DHT22;11376;50.932;4.442;2023-02-27T01:43:16;0.60;99.90
22418;DHT22;11376;50.932;4.442;2023-02-27T01:45:44;0.60;99.90
22418;DHT22;11376;50.932;4.442;2023-02-27T01:48:29;0.60;99.90
22418;DHT22;11376;50.932;4.442;2023-02-27T01:51:00;0.50;99.90
22418;DHT22;11376;50.932;4.442;2023-02-27T01:53:28;0.50;99.90
22418;DHT22;11376;50.932;4.442;2023-02-27T01:55:58;0.50;99.90
22418;DHT22;11376;50.932;4.442;2023-02-27T01:58:25;0.50;99.90
22418;DHT22;11376;50.932;4.442;2023-02-27T02:00:51;0.50;99.90
22418;DHT22;11376;50.932;4.442;2023-02-27T02:05:48;0.50;99.90
22418;DHT22;11376;50.932;4.442;2023-02-27T02:08:18;0.40;99.90
22418;DHT22;11376;50.932;4.442;2023-02-27T02:10:46;0.30;99.90
22418;DHT22;11376;50.932;4.442;2023-02-27T02:13:13;0.30;99.90
22418;DHT22;11376;50.932;4.442;2023-02-27T02:15:46;0.20;99.90
22418;DHT22;11376;50.932;4.442;2023-02-27T02:21:36;0.10;99.90
22418;DHT22;11376;50.932;4.442;2023-02-27T02:38:56;0.00;99.90
22418;DHT22;11376;50.932;4.442;2023-02-27T02:44:34;0.10;99.90
22418;DHT22;11376;50.932;4.442;2023-02-27T02:55:36;-0.10;99.90
22418;DHT22;11376;50.932;4.442;2023-02-27T03:00:48;-0.10;99.90
22418;DHT22;11376;50.932;4.442;2023-02-27T03:03:24;-0.10;99.90
22418;DHT22;11376;50.932;4.442;2023-02-27T03:06:18;-0.10;99.90
22418;DHT22;11376;50.932;4.442;2023-02-27T03:08:50;-0.20;99.90
22418;DHT22;11376;50.932;4.442;2023-02-27T03:11:17;-0.20;99.90
22418;DHT22;11376;50.932;4.442;2023-02-27T03:13:52;-0.20;99.90
22418;DHT22;11376;50.932;4.442;2023-02-27T03:16:30;-0.20;99.90
22418;DHT22;11376;50.932;4.442;2023-02-27T03:21:52;-0.20;99.90
22418;DHT22;11376;50.932;4.442;2023-02-27T03:24:27;-0.20;99.90
22418;DHT22;11376;50.932;4.442;2023-02-27T03:26:56;-0.10;99.90
22418;DHT22;11376;50.932;4.442;2023-02-27T03:32:12;-0.20;99.90
22418;DHT22;11376;50.932;4.442;2023-02-27T03:34:41;-0.10;99.90
22418;DHT22;11376;50.932;4.442;2023-02-27T03:39:52;-0.20;99.90
22418;DHT22;11376;50.932;4.442;2023-02-27T03:42:36;-0.20;99.90
22418;DHT22;11376;50.932;4.442;2023-02-27T03:45:32;-0.10;99.90
22418;DHT22;11376;50.932;4.442;2023-02-27T03:48:00;-0.10;99.90
22418;DHT22;11376;50.932;4.442;2023-02-27T03:50:26;-0.10;99.90
22418;DHT22;11376;50.932;4.442;2023-02-27T03:52:52;-0.10;99.90
22418;DHT22;11376;50.932;4.442;2023-02-27T03:55:20;-0.20;99.90
22418;DHT22;11376;50.932;4.442;2023-02-27T03:57:48;-0.20;99.90
22418;DHT22;11376;50.932;4.442;2023-02-27T04:00:18;-0.30;99.90
22418;DHT22;11376;50.932;4.442;2023-02-27T04:02:45;-0.20;99.90
22418;DHT22;11376;50.932;4.442;2023-02-27T04:05:11;-0.10;99.90
22418;DHT22;11376;50.932;4.442;2023-02-27T04:08:03;-0.20;99.90
22418;DHT22;11376;50.932;4.442;2023-02-27T04:26:37;-0.20;99.90
22418;DHT22;11376;50.932;4.442;2023-02-27T04:29:13;-0.20;99.90
22418;DHT22;11376;50.932;4.442;2023-02-27T04:31:46;-0.20;99.90
22418;DHT22;11376;50.932;4.442;2023-02-27T04:34:24;-0.20;99.90
22418;DHT22;11376;50.932;4.442;2023-02-27T04:39:55;-0.20;99.90
22418;DHT22;11376;50.932;4.442;2023-02-27T04:42:29;-0.20;99.90
22418;DHT22;11376;50.932;4.442;2023-02-27T04:44:57;-0.30;99.90
22418;DHT22;11376;50.932;4.442;2023-02-27T04:47:28;-0.20;99.90
22418;DHT22;11376;50.932;4.442;2023-02-27T04:49:58;-0.20;99.90
22418;DHT22;11376;50.932;4.442;2023-02-27T04:52:37;-0.20;99.90
22418;DHT22;11376;50.932;4.442;2023-02-27T04:55:05;-0.20;99.90
22418;DHT22;11376;50.932;4.442;2023-02-27T04:57:47;-0.30;99.90
22418;DHT22;11376;50.932;4.442;2023-02-27T05:00:15;-0.40;99.90
22418;DHT22;11376;50.932;4.442;2023-02-27T05:02:53;-0.40;99.90
22418;DHT22;11376;50.932;4.442;2023-02-27T05:05:24;-0.40;99.90
22418;DHT22;11376;50.932;4.442;2023-02-27T05:07:59;-0.40;99.90
22418;DHT22;11376;50.932;4.442;2023-02-27T05:10:44;-0.30;99.90
22418;DHT22;11376;50.932;4.442;2023-02-27T05:13:17;-0.30;99.90
22418;DHT22;11376;50.932;4.442;2023-02-27T05:15:48;-0.50;99.90
22418;DHT22;11376;50.932;4.442;2023-02-27T05:18:19;-0.50;99.90
22418;DHT22;11376;50.932;4.442;2023-02-27T05:21:07;-0.50;99.90
22418;DHT22;11376;50.932;4.442;2023-02-27T05:27:01;-0.60;99.90
22418;DHT22;11376;50.932;4.442;2023-02-27T05:29:48;-0.70;99.90
22418;DHT22;11376;50.932;4.442;2023-02-27T05:37:44;-0.70;99.90
22418;DHT22;11376;50.932;4.442;2023-02-27T05:40:15;-0.70;99.90
22418;DHT22;11376;50.932;4.442;2023-02-27T05:43:07;-0.70;99.90
22418;DHT22;11376;50.932;4.442;2023-02-27T05:45:36;-0.60;99.90
22418;DHT22;11376;50.932;4.442;2023-02-27T05:48:09;-0.60;99.90
22418;DHT22;11376;50.932;4.442;2023-02-27T05:50:37;-0.60;99.90
22418;DHT22;11376;50.932;4.442;2023-02-27T05:53:06;-0.70;99.90
22418;DHT22;11376;50.932;4.442;2023-02-27T05:55:48;-0.80;99.90
22418;DHT22;11376;50.932;4.442;2023-02-27T05:58:21;-0.70;99.90
22418;DHT22;11376;50.932;4.442;2023-02-27T06:01:00;-0.80;99.90
22418;DHT22;11376;50.932;4.442;2023-02-27T06:03:26;-0.80;99.90
22418;DHT22;11376;50.932;4.442;2023-02-27T06:05:54;-0.80;99.90
22418;DHT22;11376;50.932;4.442;2023-02-27T06:08:21;-0.70;99.90
22418;DHT22;11376;50.932;4.442;2023-02-27T06:10:47;-0.70;99.90
22418;DHT22;11376;50.932;4.442;2023-02-27T06:13:14;-0.80;99.90
22418;DHT22;11376;50.932;4.442;2023-02-27T06:15:41;-0.80;99.90
22418;DHT22;11376;50.932;4.442;2023-02-27T06:18:08;-0.80;99.90
22418;DHT22;11376;50.932;4.442;2023-02-27T06:20:34;-0.80;99.90
22418;DHT22;11376;50.932;4.442;2023-02-27T06:23:00;-0.80;99.90
22418;DHT22;11376;50.932;4.442;2023-02-27T06:25:25;-0.70;99.90
22418;DHT22;11376;50.932;4.442;2023-02-27T06:27:51;-0.70;99.90
22418;DHT22;11376;50.932;4.442;2023-02-27T06:30:17;-0.80;99.90
22418;DHT22;11376;50.932;4.442;2023-02-27T06:32:42;-0.80;99.90
22418;DHT22;11376;50.932;4.442;2023-02-27T06:35:08;-0.80;99.90
22418;DHT22;11376;50.932;4.442;2023-02-27T06:37:34;-0.80;99.90
22418;DHT22;11376;50.932;4.442;2023-02-27T06:40:00;-0.70;99.90
22418;DHT22;11376;50.932;4.442;2023-02-27T06:42:26;-0.60;99.90
22418;DHT22;11376;50.932;4.442;2023-02-27T06:44:51;-0.50;99.90
22418;DHT22;11376;50.932;4.442;2023-02-27T06:47:17;-0.50;99.90
22418;DHT22;11376;50.932;4.442;2023-02-27T06:49:43;-0.50;99.90
22418;DHT22;11376;50.932;4.442;2023-02-27T06:52:08;-0.60;99.90
22418;DHT22;11376;50.932;4.442;2023-02-27T06:54:34;-0.60;99.90
22418;DHT22;11376;50.932;4.442;2023-02-27T06:57:00;-0.60;99.90
22418;DHT22;11376;50.932;4.442;2023-02-27T06:59:25;-0.60;99.90
22418;DHT22;11376;50.932;4.442;2023-02-27T07:01:51;-0.60;99.90
22418;DHT22;11376;50.932;4.442;2023-02-27T07:04:17;-0.60;99.90
22418;DHT22;11376;50.932;4.442;2023-02-27T07:06:43;-0.60;99.90
22418;DHT22;11376;50.932;4.442;2023-02-27T07:09:09;-0.50;99.90
22418;DHT22;11376;50.932;4.442;2023-02-27T07:11:34;-0.30;99.90
22418;DHT22;11376;50.932;4.442;2023-02-27T07:14:00;-0.30;99.90
22418;DHT22;11376;50.932;4.442;2023-02-27T07:16:25;-0.20;99.90
22418;DHT22;11376;50.932;4.442;2023-02-27T07:18:51;-0.10;99.90
22418;DHT22;11376;50.932;4.442;2023-02-27T07:21:17;-0.10;99.90
22418;DHT22;11376;50.932;4.442;2023-02-27T07:23:42;-0.20;99.90
22418;DHT22;11376;50.932;4.442;2023-02-27T07:26:08;-0.20;99.90
22418;DHT22;11376;50.932;4.442;2023-02-27T07:28:34;-0.10;99.90
22418;DHT22;11376;50.932;4.442;2023-02-27T07:30:59;-0.20;99.90
22418;DHT22;11376;50.932;4.442;2023-02-27T07:33:25;-0.10;99.90
22418;DHT22;11376;50.932;4.442;2023-02-27T07:35:51;-0.10;99.90
22418;DHT22;11376;50.932;4.442;2023-02-27T07:38:17;0.00;99.90
22418;DHT22;11376;50.932;4.442;2023-02-27T07:40:44;0.10;99.90
22418;DHT22;11376;50.932;4.442;2023-02-27T07:43:10;0.10;99.90
22418;DHT22;11376;50.932;4.442;2023-02-27T07:45:36;0.10;99.90
22418;DHT22;11376;50.932;4.442;2023-02-27T07:48:02;0.20;99.90
22418;DHT22;11376;50.932;4.442;2023-02-27T07:50:27;0.40;99.90
22418;DHT22;11376;50.932;4.442;2023-02-27T07:52:53;0.40;99.90
22418;DHT22;11376;50.932;4.442;2023-02-27T07:55:18;0.50;99.90
22418;DHT22;11376;50.932;4.442;2023-02-27T07:57:44;0.60;99.90
22418;DHT22;11376;50.932;4.442;2023-02-27T08:00:10;0.60;99.90
22418;DHT22;11376;50.932;4.442;2023-02-27T08:02:37;0.60;99.90
22418;DHT22;11376;50.932;4.442;2023-02-27T08:05:04;0.70;99.90
22418;DHT22;11376;50.932;4.442;2023-02-27T08:07:30;0.70;99.90
22418;DHT22;11376;50.932;4.442;2023-02-27T08:09:55;0.80;99.90
22418;DHT22;11376;50.932;4.442;2023-02-27T08:12:21;0.90;99.90
22418;DHT22;11376;50.932;4.442;2023-02-27T08:14:47;1.00;99.90
22418;DHT22;11376;50.932;4.442;2023-02-27T08:17:12;1.10;99.90
22418;DHT22;11376;50.932;4.442;2023-02-27T08:19:38;1.20;99.90
22418;DHT22;11376;50.932;4.442;2023-02-27T08:22:03;1.30;99.90
22418;DHT22;11376;50.932;4.442;2023-02-27T08:24:29;1.30;99.90
22418;DHT22;11376;50.932;4.442;2023-02-27T08:26:55;1.40;99.90
22418;DHT22;11376;50.932;4.442;2023-02-27T08:29:21;1.40;99.90
22418;DHT22;11376;50.932;4.442;2023-02-27T08:31:47;1.60;99.90
22418;DHT22;11376;50.932;4.442;2023-02-27T08:34:13;1.70;99.90
22418;DHT22;11376;50.932;4.442;2023-02-27T08:36:39;1.80;99.90
22418;DHT22;11376;50.932;4.442;2023-02-27T08:39:06;1.80;99.90
22418;DHT22;11376;50.932;4.442;2023-02-27T08:41:32;1.90;99.90
22418;DHT22;11376;50.932;4.442;2023-02-27T08:43:57;2.00;99.90
22418;DHT22;11376;50.932;4.442;2023-02-27T08:46:23;2.10;99.90
22418;DHT22;11376;50.932;4.442;2023-02-27T08:48:49;2.20;99.90
22418;DHT22;11376;50.932;4.442;2023-02-27T08:51:14;2.30;99.90
22418;DHT22;11376;50.932;4.442;2023-02-27T08:53:40;2.40;99.90
22418;DHT22;11376;50.932;4.442;2023-02-27T08:56:05;2.50;99.90
22418;DHT22;11376;50.932;4.442;2023-02-27T08:58:31;2.50;99.90
22418;DHT22;11376;50.932;4.442;2023-02-27T09:00:56;2.60;99.90
22418;DHT22;11376;50.932;4.442;2023-02-27T09:03:22;2.70;99.90
22418;DHT22;11376;50.932;4.442;2023-02-27T09:05:53;2.80;99.90
22418;DHT22;11376;50.932;4.442;2023-02-27T09:08:18;3.00;99.90
22418;DHT22;11376;50.932;4.442;2023-02-27T09:10:44;3.10;99.90
22418;DHT22;11376;50.932;4.442;2023-02-27T09:13:10;3.10;99.90
22418;DHT22;11376;50.932;4.442;2023-02-27T09:15:35;3.30;99.90
22418;DHT22;11376;50.932;4.442;2023-02-27T09:18:02;3.40;99.90
22418;DHT22;11376;50.932;4.442;2023-02-27T09:20:31;3.30;99.90
22418;DHT22;11376;50.932;4.442;2023-02-27T09:22:58;3.40;99.90
22418;DHT22;11376;50.932;4.442;2023-02-27T09:25:24;3.50;99.90
22418;DHT22;11376;50.932;4.442;2023-02-27T09:27:50;3.60;99.90
22418;DHT22;11376;50.932;4.442;2023-02-27T09:30:16;3.60;99.90
22418;DHT22;11376;50.932;4.442;2023-02-27T09:32:41;3.60;99.90
22418;DHT22;11376;50.932;4.442;2023-02-27T09:35:08;3.70;99.90
22418;DHT22;11376;50.932;4.442;2023-02-27T09:37:34;3.80;99.90
22418;DHT22;11376;50.932;4.442;2023-02-27T09:40:00;4.00;99.90
22418;DHT22;11376;50.932;4.442;2023-02-27T09:42:35;4.10;99.90
22418;DHT22;11376;50.932;4.442;2023-02-27T09:45:04;4.20;99.90
22418;DHT22;11376;50.932;4.442;2023-02-27T09:47:39;4.30;99.90
22418;DHT22;11376;50.932;4.442;2023-02-27T09:52:46;4.50;99.90
22418;DHT22;11376;50.932;4.442;2023-02-27T09:55:18;4.50;99.90
22418;DHT22;11376;50.932;4.442;2023-02-27T10:03:39;4.80;99.90
22418;DHT22;11376;50.932;4.442;2023-02-27T10:06:47;4.90;99.90
22418;DHT22;11376;50.932;4.442;2023-02-27T10:17:36;6.00;99.90
22418;DHT22;11376;50.932;4.442;2023-02-27T10:20:02;6.20;99.90
22418;DHT22;11376;50.932;4.442;2023-02-27T10:22:34;6.50;99.90
22418;DHT22;11376;50.932;4.442;2023-02-27T10:25:14;6.80;99.90
22418;DHT22;11376;50.932;4.442;2023-02-27T10:27:43;7.40;99.90
22418;DHT22;11376;50.932;4.442;2023-02-27T10:30:30;7.70;99.90
22418;DHT22;11376;50.932;4.442;2023-02-27T10:33:08;8.20;99.90
22418;DHT22;11376;50.932;4.442;2023-02-27T10:35:42;9.00;99.90
22418;DHT22;11376;50.932;4.442;2023-02-27T10:38:16;9.60;99.90
22418;DHT22;11376;50.932;4.442;2023-02-27T10:40:43;9.90;99.90
22418;DHT22;11376;50.932;4.442;2023-02-27T10:43:13;10.10;99.90
22418;DHT22;11376;50.932;4.442;2023-02-27T10:45:40;10.50;99.90
22418;DHT22;11376;50.932;4.442;2023-02-27T10:48:07;11.30;99.90
22418;DHT22;11376;50.932;4.442;2023-02-27T10:50:35;12.60;99.90
22418;DHT22;11376;50.932;4.442;2023-02-27T10:53:03;13.20;99.90
22418;DHT22;11376;50.932;4.442;2023-02-27T10:55:33;14.10;99.90
22418;DHT22;11376;50.932;4.442;2023-02-27T10:58:01;15.70;95.80
22418;DHT22;11376;50.932;4.442;2023-02-27T11:00:39;15.90;92.30
22418;DHT22;11376;50.932;4.442;2023-02-27T11:03:08;16.00;88.60
22418;DHT22;11376;50.932;4.442;2023-02-27T11:05:41;15.70;89.00
22418;DHT22;11376;50.932;4.442;2023-02-27T11:08:25;15.40;86.50
22418;DHT22;11376;50.932;4.442;2023-02-27T11:10:57;16.30;85.10
22418;DHT22;11376;50.932;4.442;2023-02-27T11:13:24;16.10;81.40
22418;DHT22;11376;50.932;4.442;2023-02-27T11:18:32;16.40;78.20
22418;DHT22;11376;50.932;4.442;2023-02-27T11:21:17;16.20;78.50
22418;DHT22;11376;50.932;4.442;2023-02-27T11:24:04;17.30;74.50
22418;DHT22;11376;50.932;4.442;2023-02-27T11:29:23;17.50;72.60
22418;DHT22;11376;50.932;4.442;2023-02-27T11:34:26;18.20;67.50
22418;DHT22;11376;50.932;4.442;2023-02-27T11:37:49;18.40;67.10
22418;DHT22;11376;50.932;4.442;2023-02-27T11:42:35;18.80;63.90
22418;DHT22;11376;50.932;4.442;2023-02-27T11:45:07;19.60;62.00
22418;DHT22;11376;50.932;4.442;2023-02-27T11:48:45;21.00;57.90
22418;DHT22;11376;50.932;4.442;2023-02-27T11:56:40;21.70;51.80
22418;DHT22;11376;50.932;4.442;2023-02-27T12:07:05;21.30;49.00
22418;DHT22;11376;50.932;4.442;2023-02-27T12:12:25;21.30;48.10
22418;DHT22;11376;50.932;4.442;2023-02-27T12:14:56;22.00;46.80
22418;DHT22;11376;50.932;4.442;2023-02-27T12:17:42;22.10;45.60
22418;DHT22;11376;50.932;4.442;2023-02-27T12:20:17;22.60;45.50
22418;DHT22;11376;50.932;4.442;2023-02-27T12:22:47;23.00;44.40
22418;DHT22;11376;50.932;4.442;2023-02-27T12:31:03;22.90;42.60
22418;DHT22;11376;50.932;4.442;2023-02-27T12:33:35;22.70;42.80
22418;DHT22;11376;50.932;4.442;2023-02-27T12:36:12;22.90;41.90
22418;DHT22;11376;50.932;4.442;2023-02-27T12:38:38;22.90;41.60
22418;DHT22;11376;50.932;4.442;2023-02-27T12:43:54;21.70;43.50
22418;DHT22;11376;50.932;4.442;2023-02-27T12:49:24;23.20;40.90
22418;DHT22;11376;50.932;4.442;2023-02-27T12:52:11;23.60;40.70
22418;DHT22;11376;50.932;4.442;2023-02-27T12:55:05;22.90;40.30
22418;DHT22;11376;50.932;4.442;2023-02-27T13:00:19;21.60;42.20
22418;DHT22;11376;50.932;4.442;2023-02-27T13:03:11;22.50;41.80
22418;DHT22;11376;50.932;4.442;2023-02-27T13:06:09;23.20;40.50
22418;DHT22;11376;50.932;4.442;2023-02-27T13:08:41;22.50;40.60
22418;DHT22;11376;50.932;4.442;2023-02-27T13:17:03;22.40;41.60
22418;DHT22;11376;50.932;4.442;2023-02-27T13:19:45;22.70;40.40
22418;DHT22;11376;50.932;4.442;2023-02-27T13:24:51;20.60;42.70
22418;DHT22;11376;50.932;4.442;2023-02-27T13:27:27;19.70;43.10
22418;DHT22;11376;50.932;4.442;2023-02-27T13:30:06;18.30;45.60
22418;DHT22;11376;50.932;4.442;2023-02-27T13:32:50;16.60;49.00
22418;DHT22;11376;50.932;4.442;2023-02-27T13:35:49;15.50;51.50
22418;DHT22;11376;50.932;4.442;2023-02-27T13:38:30;14.30;53.90
22418;DHT22;11376;50.932;4.442;2023-02-27T13:46:43;12.30;59.40
22418;DHT22;11376;50.932;4.442;2023-02-27T13:59:38;11.50;63.80
22418;DHT22;11376;50.932;4.442;2023-02-27T14:04:52;12.00;63.50
22418;DHT22;11376;50.932;4.442;2023-02-27T14:07:25;12.00;64.60
22418;DHT22;11376;50.932;4.442;2023-02-27T14:10:00;12.40;64.60
22418;DHT22;11376;50.932;4.442;2023-02-27T14:12:38;13.20;62.40
22418;DHT22;11376;50.932;4.442;2023-02-27T14:17:44;14.90;57.40
22418;DHT22;11376;50.932;4.442;2023-02-27T14:23:11;16.20;55.40
22418;DHT22;11376;50.932;4.442;2023-02-27T14:25:38;15.50;56.90
22418;DHT22;11376;50.932;4.442;2023-02-27T14:31:07;13.70;60.10
22418;DHT22;11376;50.932;4.442;2023-02-27T14:33:45;13.00;62.80
22418;DHT22;11376;50.932;4.442;2023-02-27T14:38:41;11.60;65.00
22418;DHT22;11376;50.932;4.442;2023-02-27T14:41:25;11.10;67.60
22418;DHT22;11376;50.932;4.442;2023-02-27T14:43:54;10.50;69.60
22418;DHT22;11376;50.932;4.442;2023-02-27T14:46:26;10.00;72.70
22418;DHT22;11376;50.932;4.442;2023-02-27T14:49:01;9.60;75.10
22418;DHT22;11376;50.932;4.442;2023-02-27T14:51:30;9.30;76.20
22418;DHT22;11376;50.932;4.442;2023-02-27T14:54:13;9.70;76.80
22418;DHT22;11376;50.932;4.442;2023-02-27T14:56:40;10.80;73.70
22418;DHT22;11376;50.932;4.442;2023-02-27T15:01:45;11.60;71.60
22418;DHT22;11376;50.932;4.442;2023-02-27T15:04:17;12.50;68.90
22418;DHT22;11376;50.932;4.442;2023-02-27T15:06:47;13.90;65.90
22418;DHT22;11376;50.932;4.442;2023-02-27T15:09:32;13.50;62.90
22418;DHT22;11376;50.932;4.442;2023-02-27T15:11:59;12.40;65.60
22418;DHT22;11376;50.932;4.442;2023-02-27T15:14:34;12.20;67.00
22418;DHT22;11376;50.932;4.442;2023-02-27T15:17:01;12.30;67.80
22418;DHT22;11376;50.932;4.442;2023-02-27T15:19:28;12.80;65.50
22418;DHT22;11376;50.932;4.442;2023-02-27T15:21:56;13.00;65.00
22418;DHT22;11376;50.932;4.442;2023-02-27T15:26:59;13.70;62.70
22418;DHT22;11376;50.932;4.442;2023-02-27T15:29:52;13.30;64.20
22418;DHT22;11376;50.932;4.442;2023-02-27T15:32:29;12.50;66.60
22418;DHT22;11376;50.932;4.442;2023-02-27T15:34:57;11.70;67.80
22418;DHT22;11376;50.932;4.442;2023-02-27T15:37:25;11.00;69.90
22418;DHT22;11376;50.932;4.442;2023-02-27T15:39:52;10.40;72.10
22418;DHT22;11376;50.932;4.442;2023-02-27T15:42:23;9.60;73.60
22418;DHT22;11376;50.932;4.442;2023-02-27T15:44:49;9.20;76.70
22418;DHT22;11376;50.932;4.442;2023-02-27T15:47:21;8.80;78.40
22418;DHT22;11376;50.932;4.442;2023-02-27T15:49:49;8.60;80.50
22418;DHT22;11376;50.932;4.442;2023-02-27T15:52:20;8.60;81.80
22418;DHT22;11376;50.932;4.442;2023-02-27T15:54:53;8.50;83.60
22418;DHT22;11376;50.932;4.442;2023-02-27T15:57:23;8.40;83.50
22418;DHT22;11376;50.932;4.442;2023-02-27T15:59:50;8.20;84.90
22418;DHT22;11376;50.932;4.442;2023-02-27T16:02:26;8.00;86.30
22418;DHT22;11376;50.932;4.442;2023-02-27T16:04:52;7.80;87.20
22418;DHT22;11376;50.932;4.442;2023-02-27T16:07:21;7.60;89.70
22418;DHT22;11376;50.932;4.442;2023-02-27T16:10:01;7.50;90.80
22418;DHT22;11376;50.932;4.442;2023-02-27T16:12:33;7.30;91.40
22418;DHT22;11376;50.932;4.442;2023-02-27T16:15:21;7.20;92.50
22418;DHT22;11376;50.932;4.442;2023-02-27T16:20:42;7.10;94.20
22418;DHT22;11376;50.932;4.442;2023-02-27T16:23:26;6.90;94.70
22418;DHT22;11376;50.932;4.442;2023-02-27T16:31:34;6.80;96.20
22418;DHT22;11376;50.932;4.442;2023-02-27T16:34:47;6.60;96.60
22418;DHT22;11376;50.932;4.442;2023-02-27T16:37:15;6.50;96.90
22418;DHT22;11376;50.932;4.442;2023-02-27T16:39:41;6.50;97.10
22418;DHT22;11376;50.932;4.442;2023-02-27T16:42:08;6.40;97.70
22418;DHT22;11376;50.932;4.442;2023-02-27T16:44:34;6.30;97.90
22418;DHT22;11376;50.932;4.442;2023-02-27T16:47:00;6.30;98.60
22418;DHT22;11376;50.932;4.442;2023-02-27T16:49:28;6.30;99.40
22418;DHT22;11376;50.932;4.442;2023-02-27T16:51:55;6.20;99.90
22418;DHT22;11376;50.932;4.442;2023-02-27T16:54:21;6.20;99.90
22418;DHT22;11376;50.932;4.442;2023-02-27T16:56:48;6.10;99.90
22418;DHT22;11376;50.932;4.442;2023-02-27T16:59:33;6.00;99.90
22418;DHT22;11376;50.932;4.442;2023-02-27T17:02:02;5.90;99.90
22418;DHT22;11376;50.932;4.442;2023-02-27T17:04:28;5.90;99.90
22418;DHT22;11376;50.932;4.442;2023-02-27T17:06:56;5.70;99.90
22418;DHT22;11376;50.932;4.442;2023-02-27T17:09:22;5.60;99.90
22418;DHT22;11376;50.932;4.442;2023-02-27T17:11:47;5.60;99.90
22418;DHT22;11376;50.932;4.442;2023-02-27T17:14:13;5.50;99.90
22418;DHT22;11376;50.932;4.442;2023-02-27T17:16:39;5.40;99.90
22418;DHT22;11376;50.932;4.442;2023-02-27T17:19:05;5.30;99.90
22418;DHT22;11376;50.932;4.442;2023-02-27T17:21:31;5.30;99.90
22418;DHT22;11376;50.932;4.442;2023-02-27T17:23:57;5.30;99.90
22418;DHT22;11376;50.932;4.442;2023-02-27T17:26:22;5.20;99.90
22418;DHT22;11376;50.932;4.442;2023-02-27T17:28:48;5.10;99.90
22418;DHT22;11376;50.932;4.442;2023-02-27T17:31:14;5.10;99.90
22418;DHT22;11376;50.932;4.442;2023-02-27T17:33:40;5.00;99.90
22418;DHT22;11376;50.932;4.442;2023-02-27T17:36:08;5.00;99.90
22418;DHT22;11376;50.932;4.442;2023-02-27T17:38:35;5.00;99.90
22418;DHT22;11376;50.932;4.442;2023-02-27T17:41:12;5.00;99.90
22418;DHT22;11376;50.932;4.442;2023-02-27T17:43:38;5.00;99.90
22418;DHT22;11376;50.932;4.442;2023-02-27T17:46:08;5.00;99.90
22418;DHT22;11376;50.932;4.442;2023-02-27T17:48:35;4.90;99.90
22418;DHT22;11376;50.932;4.442;2023-02-27T17:51:10;4.80;99.90
22418;DHT22;11376;50.932;4.442;2023-02-27T17:53:38;4.70;99.90
22418;DHT22;11376;50.932;4.442;2023-02-27T17:56:04;4.60;99.90
22418;DHT22;11376;50.932;4.442;2023-02-27T17:58:30;4.50;99.90
22418;DHT22;11376;50.932;4.442;2023-02-27T18:01:10;4.50;99.90
22418;DHT22;11376;50.932;4.442;2023-02-27T18:03:37;4.50;99.90
22418;DHT22;11376;50.932;4.442;2023-02-27T18:06:04;4.40;99.90
22418;DHT22;11376;50.932;4.442;2023-02-27T18:08:30;4.40;99.90
22418;DHT22;11376;50.932;4.442;2023-02-27T18:10:56;4.40;99.90
22418;DHT22;11376;50.932;4.442;2023-02-27T18:13:23;4.50;99.90
22418;DHT22;11376;50.932;4.442;2023-02-27T18:15:50;4.50;99.90
22418;DHT22;11376;50.932;4.442;2023-02-27T18:18:16;4.40;99.90
22418;DHT22;11376;50.932;4.442;2023-02-27T18:20:42;4.50;99.90
22418;DHT22;11376;50.932;4.442;2023-02-27T18:23:08;4.40;99.90
22418;DHT22;11376;50.932;4.442;2023-02-27T18:25:35;4.40;99.90
22418;DHT22;11376;50.932;4.442;2023-02-27T18:28:01;4.40;99.90
22418;DHT22;11376;50.932;4.442;2023-02-27T18:30:30;4.40;99.90
22418;DHT22;11376;50.932;4.442;2023-02-27T18:32:58;4.40;99.90
22418;DHT22;11376;50.932;4.442;2023-02-27T18:35:24;4.40;99.90
22418;DHT22;11376;50.932;4.442;2023-02-27T18:37:50;4.40;99.90
22418;DHT22;11376;50.932;4.442;2023-02-27T18:40:16;4.40;99.90
22418;DHT22;11376;50.932;4.442;2023-02-27T18:42:43;4.40;99.90
22418;DHT22;11376;50.932;4.442;2023-02-27T18:45:11;4.40;99.90
22418;DHT22;11376;50.932;4.442;2023-02-27T18:47:36;4.30;99.90
22418;DHT22;11376;50.932;4.442;2023-02-27T18:50:02;4.20;99.90
22418;DHT22;11376;50.932;4.442;2023-02-27T18:52:27;4.20;99.90
22418;DHT22;11376;50.932;4.442;2023-02-27T18:54:55;4.10;99.90
22418;DHT22;11376;50.932;4.442;2023-02-27T18:57:21;4.00;99.90
22418;DHT22;11376;50.932;4.442;2023-02-27T18:59:46;4.00;99.90